createdAt,value
2022-12-05T00:03:59.907Z,98008.09
2022-12-05T00:09:04.829Z,98004.00
2022-12-05T00:14:10.347Z,98005.06
2022-12-05T00:19:15.716Z,98008.78
2022-12-05T00:24:19.231Z,98008.22
2022-12-05T00:29:22.833Z,98000.38
2022-12-05T00:34:26.373Z,98000.59
2022-12-05T00:39:30.699Z,98003.28
2022-12-05T00:44:34.133Z,98002.22
2022-12-05T00:49:37.467Z,98000.38
2022-12-05T00:54:40.801Z,97996.28
2022-12-05T00:59:44.283Z,97992.66
2022-12-05T01:04:47.646Z,98001.25
2022-12-05T01:09:51.049Z,97993.88
2022-12-05T01:14:54.784Z,97992.00
2022-12-05T01:19:58.164Z,97994.13
2022-12-05T01:25:01.593Z,97983.34
2022-12-05T01:30:05.634Z,97989.81
2022-12-05T01:35:09.332Z,97981.13
2022-12-05T01:40:12.913Z,97981.63
2022-12-05T01:45:23.074Z,97985.59
2022-12-05T01:50:26.471Z,97983.41
2022-12-05T01:55:31.037Z,97978.47
2022-12-05T02:00:34.526Z,97982.25
2022-12-05T02:05:38.877Z,97985.75
2022-12-05T02:10:50.760Z,97980.84
2022-12-05T02:16:05.669Z,97977.00
2022-12-05T02:21:24.786Z,97982.53
2022-12-05T02:26:33.992Z,97984.31
2022-12-05T02:32:41.726Z,97971.13
2022-12-05T02:38:25.303Z,97987.28
2022-12-05T02:44:05.685Z,97989.31
2022-12-05T02:49:13.450Z,97996.22
2022-12-05T02:54:43.198Z,97990.81
2022-12-05T02:59:46.597Z,97989.53
2022-12-05T03:04:50.014Z,98004.41
2022-12-05T03:09:58.916Z,98003.81
2022-12-05T03:15:26.179Z,98005.94
2022-12-05T03:20:38.761Z,98006.16
2022-12-05T03:26:00.558Z,98008.75
2022-12-05T03:31:11.627Z,98013.31
2022-12-05T03:36:28.577Z,98012.50
2022-12-05T03:42:01.791Z,98014.97
2022-12-05T03:47:20.689Z,98025.50
2022-12-05T03:53:19.481Z,98033.81
2022-12-05T03:58:30.873Z,98031.34
2022-12-05T04:03:41.955Z,98041.06
2022-12-05T04:08:53.993Z,98038.38
2022-12-05T04:14:05.736Z,98041.66
2022-12-05T04:19:09.331Z,98045.16
2022-12-05T04:24:19.858Z,98048.69
2022-12-05T04:29:32.157Z,98041.66
2022-12-05T04:34:38.811Z,98041.06
2022-12-05T04:39:51.415Z,98053.50
2022-12-05T04:45:10.482Z,98049.13
2022-12-05T04:50:16.707Z,98045.28
2022-12-05T04:55:23.541Z,98053.69
2022-12-05T05:00:30.486Z,98053.50
2022-12-05T05:05:36.277Z,98055.44
2022-12-05T05:10:52.636Z,98045.28
2022-12-05T05:15:56.046Z,98051.09
2022-12-05T05:20:59.915Z,98053.66
2022-12-05T05:26:09.021Z,98060.34
2022-12-05T05:31:13.932Z,98055.38
2022-12-05T05:36:18.494Z,98058.28
2022-12-05T05:41:25.063Z,98069.84
2022-12-05T05:46:31.709Z,98078.47
2022-12-05T05:51:35.061Z,98074.69
2022-12-05T05:56:40.455Z,98087.72
2022-12-05T06:01:43.799Z,98089.53
2022-12-05T06:06:47.377Z,98090.22
2022-12-05T06:11:50.732Z,98101.06
2022-12-05T06:16:54.340Z,98102.22
2022-12-05T06:21:57.999Z,98115.81
2022-12-05T06:27:01.398Z,98114.94
2022-12-05T06:32:05.238Z,98115.78
2022-12-05T06:37:08.675Z,98119.41
2022-12-05T06:42:12.066Z,98135.47
2022-12-05T06:47:15.509Z,98130.53
2022-12-05T06:52:18.734Z,98133.81
2022-12-05T06:57:22.052Z,98144.22
2022-12-05T07:02:25.412Z,98138.31
2022-12-05T07:07:30.070Z,98138.97
2022-12-05T07:12:34.553Z,98143.09
2022-12-05T07:17:39.101Z,98152.31
2022-12-05T07:22:42.309Z,98144.59
2022-12-05T07:27:45.326Z,98146.50
2022-12-05T07:32:48.225Z,98146.91
2022-12-05T07:37:51.104Z,98142.41
2022-12-05T07:42:54.206Z,98145.47
2022-12-05T07:47:58.151Z,98139.75
2022-12-05T07:53:01.578Z,98140.69
2022-12-05T07:58:04.870Z,98131.56
2022-12-05T08:03:08.042Z,98138.19
2022-12-05T08:08:11.511Z,98135.72
2022-12-05T08:13:14.924Z,98133.25
2022-12-05T08:18:20.072Z,98133.88
2022-12-05T08:23:25.262Z,98127.16
2022-12-05T08:28:29.329Z,98113.56
2022-12-05T08:33:32.826Z,98113.97
2022-12-05T08:38:36.696Z,98111.94
2022-12-05T08:43:40.746Z,98107.19
2022-12-05T08:48:43.983Z,98096.66
2022-12-05T08:53:47.480Z,98102.44
2022-12-05T08:58:50.946Z,98093.50
2022-12-05T09:03:54.544Z,98094.31
2022-12-05T09:09:00.490Z,98086.56
2022-12-05T09:14:04.628Z,98083.09
2022-12-05T09:19:15.682Z,98081.19
2022-12-05T09:24:19.113Z,98068.97
2022-12-05T09:29:22.605Z,98064.44
2022-12-05T09:34:25.890Z,98056.34
2022-12-05T09:39:29.175Z,98044.75
2022-12-05T09:44:47.578Z,98043.38
2022-12-05T09:50:02.261Z,98035.88
2022-12-05T09:55:13.416Z,98025.06
2022-12-05T10:00:17.507Z,98015.91
2022-12-05T10:05:47.993Z,98006.72
2022-12-05T10:11:05.473Z,98007.84
2022-12-05T10:16:17.730Z,98009.19
2022-12-05T10:21:52.586Z,97999.72
2022-12-05T10:27:02.807Z,97994.03
2022-12-05T10:32:16.000Z,97991.28
2022-12-05T10:37:24.005Z,97987.47
2022-12-05T10:42:32.052Z,97979.59
2022-12-05T10:47:36.447Z,97976.91
2022-12-05T10:52:39.827Z,97967.91
2022-12-05T10:57:43.246Z,97966.56
2022-12-05T11:02:51.421Z,97969.78
2022-12-05T11:07:56.944Z,97969.47
2022-12-05T11:13:02.140Z,97964.34
2022-12-05T11:18:20.068Z,97963.75
2022-12-05T11:23:27.603Z,97957.50
2022-12-05T11:28:37.791Z,97958.03
2022-12-05T11:33:41.439Z,97956.41
2022-12-05T11:38:45.019Z,97954.75
2022-12-05T11:44:19.340Z,97950.41
2022-12-05T11:50:03.457Z,97949.81
2022-12-05T11:55:42.702Z,97951.69
2022-12-05T12:01:08.343Z,97947.38
2022-12-05T12:06:17.335Z,97952.50
2022-12-05T12:11:29.772Z,97939.19
2022-12-05T12:16:54.493Z,97947.88
2022-12-05T12:22:20.678Z,97945.44
2022-12-05T12:28:07.904Z,97941.91
2022-12-05T12:33:31.780Z,97942.97
2022-12-05T12:38:35.293Z,97935.38
2022-12-05T12:44:10.736Z,97938.59
2022-12-05T12:49:49.509Z,97931.28
2022-12-05T12:55:11.407Z,97927.44
2022-12-05T13:00:31.702Z,97927.41
2022-12-05T13:05:54.270Z,97931.41
2022-12-05T13:10:59.244Z,97929.53
2022-12-05T13:16:06.583Z,97930.59
2022-12-05T13:21:10.674Z,97937.56
2022-12-05T13:26:14.835Z,97940.91
2022-12-05T13:31:18.925Z,97939.72
2022-12-05T13:36:23.108Z,97945.81
2022-12-05T13:41:43.082Z,97943.03
2022-12-05T13:46:50.846Z,97945.97
2022-12-05T13:51:54.423Z,97946.81
2022-12-05T13:57:02.768Z,97941.66
2022-12-05T14:02:44.772Z,97941.91
2022-12-05T14:07:55.039Z,97949.41
2022-12-05T14:13:23.622Z,97951.75
2022-12-05T14:18:50.485Z,97943.78
2022-12-05T14:24:13.410Z,97946.63
2022-12-05T14:29:53.968Z,97949.44
2022-12-05T14:35:15.612Z,97952.22
2022-12-05T14:40:26.954Z,97946.69
2022-12-05T14:45:38.536Z,97959.81
2022-12-05T14:50:45.211Z,97958.38
2022-12-05T14:56:00.632Z,97962.53
2022-12-05T15:01:09.173Z,97966.22
2022-12-05T15:06:16.168Z,97970.16
2022-12-05T15:11:23.698Z,97970.34
2022-12-05T15:16:30.492Z,97963.56
2022-12-05T15:21:42.684Z,97980.00
2022-12-05T15:26:54.656Z,97972.13
2022-12-05T15:32:21.753Z,97981.03
2022-12-05T15:37:33.763Z,97988.56
2022-12-05T15:42:43.160Z,97979.75
2022-12-05T15:47:48.476Z,97985.44
2022-12-05T15:53:29.422Z,97980.56
2022-12-05T15:58:42.471Z,97981.84
2022-12-05T16:03:57.822Z,97988.22
2022-12-05T16:09:11.555Z,97986.53
2022-12-05T16:14:31.105Z,97986.13
2022-12-05T16:19:39.328Z,97998.53
2022-12-05T16:24:59.612Z,97995.53
2022-12-05T16:30:19.482Z,98000.00
2022-12-05T16:35:35.009Z,98006.94
2022-12-05T16:40:50.525Z,98003.91
2022-12-05T16:45:56.996Z,97999.22
2022-12-05T16:51:22.897Z,98003.78
2022-12-05T16:56:27.680Z,97997.50
2022-12-05T17:01:35.646Z,97997.97
2022-12-05T17:06:42.140Z,98003.28
2022-12-05T17:11:48.984Z,98003.50
2022-12-05T17:16:53.188Z,98001.56
2022-12-05T17:21:56.615Z,98002.84
2022-12-05T17:27:00.176Z,98008.47
2022-12-05T17:32:04.350Z,98016.81
2022-12-05T17:37:08.518Z,98010.00
2022-12-05T17:42:12.019Z,98023.47
2022-12-05T17:47:18.175Z,98027.25
2022-12-05T17:52:28.681Z,98031.00
2022-12-05T17:57:35.119Z,98032.63
2022-12-05T18:02:40.066Z,98030.75
2022-12-05T18:07:45.515Z,98029.47
2022-12-05T18:12:50.557Z,98031.91
2022-12-05T18:17:53.955Z,98037.31
2022-12-05T18:22:58.174Z,98036.81
2022-12-05T18:28:01.960Z,98029.63
2022-12-05T18:33:06.998Z,98028.34
2022-12-05T18:38:11.413Z,98026.22
2022-12-05T18:43:16.440Z,98032.69
2022-12-05T18:53:45.126Z,98033.59
2022-12-05T18:59:01.144Z,98027.97
2022-12-05T19:04:06.348Z,98040.38
2022-12-05T19:09:13.531Z,98039.00
2022-12-05T19:14:19.734Z,98037.00
2022-12-05T19:19:24.366Z,98032.44
2022-12-05T19:24:28.823Z,98029.75
2022-12-05T19:29:32.172Z,98025.66
2022-12-05T19:34:35.526Z,98021.91
2022-12-05T19:39:38.904Z,98028.56
2022-12-05T19:44:42.198Z,98021.94
2022-12-05T19:49:45.598Z,98024.53
2022-12-05T19:54:48.887Z,98031.25
2022-12-05T19:59:52.232Z,98030.06
2022-12-05T20:04:55.644Z,98026.69
2022-12-05T20:10:00.203Z,98027.19
2022-12-05T20:15:06.954Z,98019.56
2022-12-05T20:20:11.132Z,98020.88
2022-12-05T20:25:16.127Z,98021.91
2022-12-05T20:30:20.981Z,98015.16
2022-12-05T20:35:24.676Z,98012.09
2022-12-05T20:40:28.016Z,98012.84
2022-12-05T20:45:31.376Z,98014.09
2022-12-05T20:50:34.944Z,98011.66
2022-12-05T20:55:38.282Z,98005.94
2022-12-05T21:00:42.823Z,98000.22
2022-12-05T21:05:46.548Z,97998.81
2022-12-05T21:10:51.994Z,97995.53
2022-12-05T21:15:55.513Z,97996.03
2022-12-05T21:21:01.071Z,97999.53
2022-12-05T21:26:07.588Z,97995.41
2022-12-05T21:31:16.709Z,97989.47
2022-12-05T21:36:22.087Z,97980.00
2022-12-05T21:41:26.668Z,97983.97
2022-12-05T21:46:30.417Z,97981.19
2022-12-05T21:51:33.909Z,97971.69
2022-12-05T21:56:37.631Z,97970.44
2022-12-05T22:01:41.116Z,97973.69
2022-12-05T22:06:44.833Z,97971.69
2022-12-05T22:11:48.294Z,97972.28
2022-12-05T22:16:51.706Z,97963.63
2022-12-05T22:21:54.995Z,97960.94
2022-12-05T22:26:58.581Z,97955.09
2022-12-05T22:32:01.971Z,97950.03
2022-12-05T22:37:05.400Z,97952.03
2022-12-05T22:42:09.632Z,97949.91
2022-12-05T22:47:13.280Z,97957.28
2022-12-05T22:52:17.326Z,97955.75
2022-12-05T22:57:20.608Z,97960.38
2022-12-05T23:02:24.187Z,97965.31
2022-12-05T23:07:27.803Z,97963.19
2022-12-05T23:12:31.398Z,97959.78
2022-12-05T23:17:35.311Z,97963.28
2022-12-05T23:22:38.766Z,97975.59
2022-12-05T23:27:42.198Z,97971.97
2022-12-05T23:32:45.786Z,97957.78
2022-12-05T23:37:49.271Z,97960.34
2022-12-05T23:42:53.099Z,97963.75
2022-12-05T23:47:58.457Z,97954.69
2022-12-05T23:53:05.225Z,97957.75
2022-12-05T23:58:08.910Z,97948.66
